Erie, IL (61250)

12:59 AM CDT on August 25, 2016 (GMT -0500)
JRITE Weather | | Change Station

Elev 591 ft 41.66 °N, 90.08 °W | Updated 28 seconds ago

Overcast
Overcast
71.5 °F
Feels Like 71.5 °F
N
1.5
Wind Variable Wind from SSW
Gusts 3.0 mph

Today
High -- | Low -- °F
--% Chance of Precip.
Yesterday
High -- | Low -- °F
Precip. -- in
Pressure 30.03 in
Visibility 5.0 miles
Clouds Overcast 3600 ft
Dew Point 70 °F
Humidity 94%
Rainfall 0.00 in
Snow Depth Not available.
6:19 AM 7:44 PM
Waning Gibbous, 49% visible
METAR KCWI 250556Z AUTO 29004KT 5SM BR OVC036 22/22 A2999 RMK AO2 SLP167 6//// T02220222 10267 20222 55005 PNO $
Pressure 30.03 in
Visibility 5.0 miles
Clouds Overcast 3600 ft
Dew Point 70 °F
Humidity 94%
Rainfall 0.00 in
Snow Depth Not available.
6:19 AM 7:44 PM
Waning Gibbous, 49% visible
METAR KCWI 250556Z AUTO 29004KT 5SM BR OVC036 22/22 A2999 RMK AO2 SLP167 6//// T02220222 10267 20222 55005 PNO $

10-Day Weather Forecast

Almanac

Astronomy

Aug. 25, 2016 Rise Set
Actual Time
Civil Twilight
Nautical Twilight
Astronomical Twilight
Moon
Length of Visible Light
Length of Day
Tomorrow will be .
, % of the Moon is Illuminated

Today's Extremes

State Highs State Lows

Community

WunderPhotos

Upload Photos

1,934,799 photos uploaded!

WunderBlog® & News

Nearby

Air Quality

  Air Quality AQ Index Pollutant
Not available.

Snow Depth

Station Depth Elevation

Earthquake Activity

City Distance Mag. Time & Date
Minimum magnitude displayed is 2.5.

Coastal Water Temperatures

Place Temperature

Stations

Nearby Weather Stations

Station Location Temp. Windchill Dew Point Humidity Wind Precip. Elev Updated Type
                   

Watches & Warnings

There are currently no watches in effect.